Kwintsheul, Netherlands
Current Conditions -  °F | °C
As of 3:25 PM on Saturday 20 Dec 2014 (Local Time) from EHRD Reporting Station
Moderate Rain Moderate Rain  
Wind Chill: 38°   Ceiling: 3500
Heat Index: 46°   Visibility: 6mi
Dew Point: 41°   Wind: 24mph
Humidity: 81%   Direction: 280°W
Pressure: 30.12"   Gusts: 37mph
Location:  52.01°N, 4.26°E
Report Text: EHRD 201425Z AUTO 28021G32KT 240V320 9999 RA FEW015CB SCT031BKN035 08/05 Q1020 TEMPO 5000 SHRAGS
Loading
Personal Weather Stations






























Interactive Weather Map New forecast layout! Learn more

10-Day Weather Forecast

Advertisements
Track Severe Weather on mobile